sensor_id;sensor_type;location;lat;lon;timestamp;P1;durP1;ratioP1;P2;durP2;ratioP2
19388;SDS011;9830;41.876;23.474;2023-07-29T00:01:50;0.23;;;0.23;;
19388;SDS011;9830;41.876;23.474;2023-07-29T00:04:17;0.60;;;0.60;;
19388;SDS011;9830;41.876;23.474;2023-07-29T00:06:42;0.20;;;0.20;;
19388;SDS011;9830;41.876;23.474;2023-07-29T00:09:08;0.30;;;0.30;;
19388;SDS011;9830;41.876;23.474;2023-07-29T00:11:33;0.00;;;0.00;;
19388;SDS011;9830;41.876;23.474;2023-07-29T00:14:00;0.47;;;0.47;;
19388;SDS011;9830;41.876;23.474;2023-07-29T00:16:26;0.53;;;0.53;;
19388;SDS011;9830;41.876;23.474;2023-07-29T00:18:52;0.40;;;0.40;;
19388;SDS011;9830;41.876;23.474;2023-07-29T00:21:17;0.00;;;0.00;;
19388;SDS011;9830;41.876;23.474;2023-07-29T00:23:43;0.30;;;0.30;;
19388;SDS011;9830;41.876;23.474;2023-07-29T00:26:09;0.40;;;0.30;;
19388;SDS011;9830;41.876;23.474;2023-07-29T00:28:35;0.00;;;0.00;;
19388;SDS011;9830;41.876;23.474;2023-07-29T00:31:01;2.20;;;0.60;;
19388;SDS011;9830;41.876;23.474;2023-07-29T00:33:27;0.23;;;0.23;;
19388;SDS011;9830;41.876;23.474;2023-07-29T00:35:53;2.93;;;0.93;;
19388;SDS011;9830;41.876;23.474;2023-07-29T00:38:18;0.47;;;0.47;;
19388;SDS011;9830;41.876;23.474;2023-07-29T00:40:44;0.40;;;0.40;;
19388;SDS011;9830;41.876;23.474;2023-07-29T00:43:10;0.20;;;0.20;;
19388;SDS011;9830;41.876;23.474;2023-07-29T00:45:35;0.43;;;0.30;;
19388;SDS011;9830;41.876;23.474;2023-07-29T00:48:02;0.13;;;0.13;;
19388;SDS011;9830;41.876;23.474;2023-07-29T00:50:28;0.37;;;0.37;;
19388;SDS011;9830;41.876;23.474;2023-07-29T00:52:55;0.43;;;0.40;;
19388;SDS011;9830;41.876;23.474;2023-07-29T00:55:21;0.90;;;0.87;;
19388;SDS011;9830;41.876;23.474;2023-07-29T00:57:47;0.00;;;0.00;;
19388;SDS011;9830;41.876;23.474;2023-07-29T01:00:14;0.57;;;0.57;;
19388;SDS011;9830;41.876;23.474;2023-07-29T01:02:42;0.77;;;0.40;;
19388;SDS011;9830;41.876;23.474;2023-07-29T01:05:07;0.30;;;0.30;;
19388;SDS011;9830;41.876;23.474;2023-07-29T01:07:44;0.90;;;0.40;;
19388;SDS011;9830;41.876;23.474;2023-07-29T01:10:43;0.20;;;0.20;;
19388;SDS011;9830;41.876;23.474;2023-07-29T01:13:17;0.43;;;0.43;;
19388;SDS011;9830;41.876;23.474;2023-07-29T01:15:52;4.97;;;0.10;;
19388;SDS011;9830;41.876;23.474;2023-07-29T01:18:23;0.50;;;0.50;;
19388;SDS011;9830;41.876;23.474;2023-07-29T01:20:54;0.40;;;0.40;;
19388;SDS011;9830;41.876;23.474;2023-07-29T01:23:25;0.33;;;0.33;;
19388;SDS011;9830;41.876;23.474;2023-07-29T01:25:59;0.20;;;0.20;;
19388;SDS011;9830;41.876;23.474;2023-07-29T01:28:25;0.27;;;0.27;;
19388;SDS011;9830;41.876;23.474;2023-07-29T01:30:52;0.40;;;0.40;;
19388;SDS011;9830;41.876;23.474;2023-07-29T01:33:30;0.47;;;0.47;;
19388;SDS011;9830;41.876;23.474;2023-07-29T01:36:03;0.53;;;0.53;;
19388;SDS011;9830;41.876;23.474;2023-07-29T01:38:38;0.27;;;0.10;;
19388;SDS011;9830;41.876;23.474;2023-07-29T01:41:07;0.97;;;0.87;;
19388;SDS011;9830;41.876;23.474;2023-07-29T01:43:33;0.07;;;0.07;;
19388;SDS011;9830;41.876;23.474;2023-07-29T01:46:04;0.50;;;0.50;;
19388;SDS011;9830;41.876;23.474;2023-07-29T01:48:30;0.97;;;0.97;;
19388;SDS011;9830;41.876;23.474;2023-07-29T01:50:57;0.20;;;0.20;;
19388;SDS011;9830;41.876;23.474;2023-07-29T01:53:22;0.70;;;0.53;;
19388;SDS011;9830;41.876;23.474;2023-07-29T01:55:48;0.00;;;0.00;;
19388;SDS011;9830;41.876;23.474;2023-07-29T01:58:14;0.50;;;0.50;;
19388;SDS011;9830;41.876;23.474;2023-07-29T02:00:40;0.77;;;0.77;;
19388;SDS011;9830;41.876;23.474;2023-07-29T02:03:06;0.30;;;0.30;;
19388;SDS011;9830;41.876;23.474;2023-07-29T02:05:31;0.17;;;0.17;;
19388;SDS011;9830;41.876;23.474;2023-07-29T02:07:57;0.20;;;0.20;;
19388;SDS011;9830;41.876;23.474;2023-07-29T02:10:23;0.60;;;0.60;;
19388;SDS011;9830;41.876;23.474;2023-07-29T02:12:48;0.67;;;0.50;;
19388;SDS011;9830;41.876;23.474;2023-07-29T02:15:14;0.53;;;0.53;;
19388;SDS011;9830;41.876;23.474;2023-07-29T02:17:41;0.13;;;0.13;;
19388;SDS011;9830;41.876;23.474;2023-07-29T02:20:07;0.10;;;0.10;;
19388;SDS011;9830;41.876;23.474;2023-07-29T02:22:33;0.13;;;0.10;;
19388;SDS011;9830;41.876;23.474;2023-07-29T02:24:59;0.00;;;0.00;;
19388;SDS011;9830;41.876;23.474;2023-07-29T02:27:25;0.20;;;0.20;;
19388;SDS011;9830;41.876;23.474;2023-07-29T02:29:52;0.87;;;0.40;;
19388;SDS011;9830;41.876;23.474;2023-07-29T02:32:18;2.20;;;0.63;;
19388;SDS011;9830;41.876;23.474;2023-07-29T02:34:44;0.03;;;0.03;;
19388;SDS011;9830;41.876;23.474;2023-07-29T02:37:10;0.43;;;0.27;;
19388;SDS011;9830;41.876;23.474;2023-07-29T02:39:36;0.40;;;0.40;;
19388;SDS011;9830;41.876;23.474;2023-07-29T02:42:02;0.40;;;0.23;;
19388;SDS011;9830;41.876;23.474;2023-07-29T02:44:27;0.87;;;0.67;;
19388;SDS011;9830;41.876;23.474;2023-07-29T02:46:53;0.10;;;0.10;;
19388;SDS011;9830;41.876;23.474;2023-07-29T02:49:20;0.60;;;0.60;;
19388;SDS011;9830;41.876;23.474;2023-07-29T02:51:47;2.17;;;0.43;;
19388;SDS011;9830;41.876;23.474;2023-07-29T02:54:12;1.10;;;0.20;;
19388;SDS011;9830;41.876;23.474;2023-07-29T02:56:38;0.77;;;0.30;;
19388;SDS011;9830;41.876;23.474;2023-07-29T02:59:04;0.00;;;0.00;;
19388;SDS011;9830;41.876;23.474;2023-07-29T03:01:30;0.47;;;0.47;;
19388;SDS011;9830;41.876;23.474;2023-07-29T03:03:56;1.00;;;1.00;;
19388;SDS011;9830;41.876;23.474;2023-07-29T03:06:21;0.00;;;0.00;;
19388;SDS011;9830;41.876;23.474;2023-07-29T03:08:49;0.57;;;0.47;;
19388;SDS011;9830;41.876;23.474;2023-07-29T03:11:15;1.00;;;0.60;;
19388;SDS011;9830;41.876;23.474;2023-07-29T03:13:41;1.00;;;0.50;;
19388;SDS011;9830;41.876;23.474;2023-07-29T03:16:14;2.23;;;0.23;;
19388;SDS011;9830;41.876;23.474;2023-07-29T03:18:41;4.80;;;0.83;;
19388;SDS011;9830;41.876;23.474;2023-07-29T03:21:08;0.03;;;0.03;;
19388;SDS011;9830;41.876;23.474;2023-07-29T03:23:34;0.27;;;0.27;;
19388;SDS011;9830;41.876;23.474;2023-07-29T03:26:01;0.93;;;0.70;;
19388;SDS011;9830;41.876;23.474;2023-07-29T03:28:29;0.33;;;0.33;;
19388;SDS011;9830;41.876;23.474;2023-07-29T03:30:57;1.30;;;0.67;;
19388;SDS011;9830;41.876;23.474;2023-07-29T03:33:24;0.50;;;0.50;;
19388;SDS011;9830;41.876;23.474;2023-07-29T03:35:50;0.07;;;0.07;;
19388;SDS011;9830;41.876;23.474;2023-07-29T03:38:16;0.10;;;0.10;;
19388;SDS011;9830;41.876;23.474;2023-07-29T03:40:42;0.70;;;0.70;;
19388;SDS011;9830;41.876;23.474;2023-07-29T03:43:08;0.83;;;0.67;;
19388;SDS011;9830;41.876;23.474;2023-07-29T03:45:34;0.70;;;0.70;;
19388;SDS011;9830;41.876;23.474;2023-07-29T03:48:01;0.13;;;0.13;;
19388;SDS011;9830;41.876;23.474;2023-07-29T03:50:28;0.20;;;0.20;;
19388;SDS011;9830;41.876;23.474;2023-07-29T03:52:54;0.43;;;0.43;;
19388;SDS011;9830;41.876;23.474;2023-07-29T03:55:21;0.40;;;0.40;;
19388;SDS011;9830;41.876;23.474;2023-07-29T03:57:46;4.93;;;0.77;;
19388;SDS011;9830;41.876;23.474;2023-07-29T04:00:12;0.70;;;0.57;;
19388;SDS011;9830;41.876;23.474;2023-07-29T04:02:38;0.20;;;0.20;;
19388;SDS011;9830;41.876;23.474;2023-07-29T04:05:04;0.87;;;0.67;;
19388;SDS011;9830;41.876;23.474;2023-07-29T04:07:33;0.50;;;0.50;;
19388;SDS011;9830;41.876;23.474;2023-07-29T04:09:59;0.43;;;0.43;;
19388;SDS011;9830;41.876;23.474;2023-07-29T04:12:26;0.60;;;0.53;;
19388;SDS011;9830;41.876;23.474;2023-07-29T04:14:51;0.27;;;0.27;;
19388;SDS011;9830;41.876;23.474;2023-07-29T04:17:17;0.20;;;0.20;;
19388;SDS011;9830;41.876;23.474;2023-07-29T04:19:46;7.93;;;1.70;;
19388;SDS011;9830;41.876;23.474;2023-07-29T04:22:11;4.17;;;1.27;;
19388;SDS011;9830;41.876;23.474;2023-07-29T04:24:37;0.60;;;0.60;;
19388;SDS011;9830;41.876;23.474;2023-07-29T04:27:03;0.30;;;0.30;;
19388;SDS011;9830;41.876;23.474;2023-07-29T04:29:29;0.57;;;0.57;;
19388;SDS011;9830;41.876;23.474;2023-07-29T04:31:55;0.20;;;0.20;;
19388;SDS011;9830;41.876;23.474;2023-07-29T04:34:20;1.10;;;0.82;;
19388;SDS011;9830;41.876;23.474;2023-07-29T04:36:46;0.82;;;0.82;;
19388;SDS011;9830;41.876;23.474;2023-07-29T04:39:12;0.77;;;0.53;;
19388;SDS011;9830;41.876;23.474;2023-07-29T04:41:38;0.38;;;0.38;;
19388;SDS011;9830;41.876;23.474;2023-07-29T04:44:03;1.77;;;1.58;;
19388;SDS011;9830;41.876;23.474;2023-07-29T04:46:29;0.63;;;0.63;;
19388;SDS011;9830;41.876;23.474;2023-07-29T04:48:55;0.68;;;0.68;;
19388;SDS011;9830;41.876;23.474;2023-07-29T04:51:21;0.60;;;0.60;;
19388;SDS011;9830;41.876;23.474;2023-07-29T04:53:47;1.17;;;1.17;;
19388;SDS011;9830;41.876;23.474;2023-07-29T04:56:13;0.73;;;0.73;;
19388;SDS011;9830;41.876;23.474;2023-07-29T04:58:38;2.70;;;1.30;;
19388;SDS011;9830;41.876;23.474;2023-07-29T05:01:04;1.00;;;0.90;;
19388;SDS011;9830;41.876;23.474;2023-07-29T05:03:30;1.38;;;1.30;;
19388;SDS011;9830;41.876;23.474;2023-07-29T05:05:57;0.75;;;0.73;;
19388;SDS011;9830;41.876;23.474;2023-07-29T05:08:24;1.20;;;1.10;;
19388;SDS011;9830;41.876;23.474;2023-07-29T05:10:50;1.95;;;1.13;;
19388;SDS011;9830;41.876;23.474;2023-07-29T05:13:17;1.92;;;1.83;;
19388;SDS011;9830;41.876;23.474;2023-07-29T05:15:43;2.00;;;1.52;;
19388;SDS011;9830;41.876;23.474;2023-07-29T05:18:09;1.20;;;1.10;;
19388;SDS011;9830;41.876;23.474;2023-07-29T05:20:35;3.70;;;1.23;;
19388;SDS011;9830;41.876;23.474;2023-07-29T05:23:00;2.20;;;1.17;;
19388;SDS011;9830;41.876;23.474;2023-07-29T05:25:26;2.13;;;1.50;;
19388;SDS011;9830;41.876;23.474;2023-07-29T05:27:53;4.15;;;2.35;;
19388;SDS011;9830;41.876;23.474;2023-07-29T05:30:19;1.58;;;1.48;;
19388;SDS011;9830;41.876;23.474;2023-07-29T05:32:44;1.38;;;1.27;;
19388;SDS011;9830;41.876;23.474;2023-07-29T05:35:10;1.20;;;1.20;;
19388;SDS011;9830;41.876;23.474;2023-07-29T05:37:37;1.30;;;1.20;;
19388;SDS011;9830;41.876;23.474;2023-07-29T05:40:05;1.55;;;1.23;;
19388;SDS011;9830;41.876;23.474;2023-07-29T05:42:32;0.93;;;0.93;;
19388;SDS011;9830;41.876;23.474;2023-07-29T05:44:58;1.33;;;1.23;;
19388;SDS011;9830;41.876;23.474;2023-07-29T05:47:25;1.85;;;1.75;;
19388;SDS011;9830;41.876;23.474;2023-07-29T05:49:50;2.33;;;2.13;;
19388;SDS011;9830;41.876;23.474;2023-07-29T05:52:17;1.48;;;1.38;;
19388;SDS011;9830;41.876;23.474;2023-07-29T05:54:42;2.08;;;1.38;;
19388;SDS011;9830;41.876;23.474;2023-07-29T05:57:11;0.82;;;0.82;;
19388;SDS011;9830;41.876;23.474;2023-07-29T05:59:37;1.20;;;1.20;;
19388;SDS011;9830;41.876;23.474;2023-07-29T06:02:04;3.55;;;1.60;;
19388;SDS011;9830;41.876;23.474;2023-07-29T06:04:30;1.60;;;1.50;;
19388;SDS011;9830;41.876;23.474;2023-07-29T06:06:55;1.52;;;1.45;;
19388;SDS011;9830;41.876;23.474;2023-07-29T06:09:22;1.15;;;1.10;;
19388;SDS011;9830;41.876;23.474;2023-07-29T06:11:50;4.28;;;1.45;;
19388;SDS011;9830;41.876;23.474;2023-07-29T06:14:16;1.08;;;1.08;;
19388;SDS011;9830;41.876;23.474;2023-07-29T06:16:41;0.95;;;0.68;;
19388;SDS011;9830;41.876;23.474;2023-07-29T06:19:07;0.55;;;0.55;;
19388;SDS011;9830;41.876;23.474;2023-07-29T06:21:34;0.98;;;0.98;;
19388;SDS011;9830;41.876;23.474;2023-07-29T06:24:00;2.13;;;2.03;;
19388;SDS011;9830;41.876;23.474;2023-07-29T06:26:26;1.30;;;1.30;;
19388;SDS011;9830;41.876;23.474;2023-07-29T06:28:52;1.50;;;1.40;;
19388;SDS011;9830;41.876;23.474;2023-07-29T06:31:17;0.75;;;0.75;;
19388;SDS011;9830;41.876;23.474;2023-07-29T06:33:43;3.70;;;1.60;;
19388;SDS011;9830;41.876;23.474;2023-07-29T06:36:09;0.70;;;0.70;;
19388;SDS011;9830;41.876;23.474;2023-07-29T06:38:34;1.45;;;1.45;;
19388;SDS011;9830;41.876;23.474;2023-07-29T06:41:00;1.05;;;0.70;;
19388;SDS011;9830;41.876;23.474;2023-07-29T06:43:26;1.42;;;1.33;;
19388;SDS011;9830;41.876;23.474;2023-07-29T06:45:52;0.80;;;0.80;;
19388;SDS011;9830;41.876;23.474;2023-07-29T06:48:18;1.45;;;0.73;;
19388;SDS011;9830;41.876;23.474;2023-07-29T06:50:45;0.70;;;0.70;;
19388;SDS011;9830;41.876;23.474;2023-07-29T06:53:10;1.63;;;1.15;;
19388;SDS011;9830;41.876;23.474;2023-07-29T06:55:36;1.23;;;1.23;;
19388;SDS011;9830;41.876;23.474;2023-07-29T06:58:02;1.52;;;1.23;;
19388;SDS011;9830;41.876;23.474;2023-07-29T07:00:28;0.85;;;0.85;;
19388;SDS011;9830;41.876;23.474;2023-07-29T07:02:54;0.82;;;0.82;;
19388;SDS011;9830;41.876;23.474;2023-07-29T07:05:19;0.85;;;0.82;;
19388;SDS011;9830;41.876;23.474;2023-07-29T07:07:45;1.58;;;1.42;;
19388;SDS011;9830;41.876;23.474;2023-07-29T07:10:10;1.00;;;1.00;;
19388;SDS011;9830;41.876;23.474;2023-07-29T07:12:36;1.65;;;1.05;;
19388;SDS011;9830;41.876;23.474;2023-07-29T07:15:02;0.80;;;0.80;;
19388;SDS011;9830;41.876;23.474;2023-07-29T07:17:28;1.30;;;1.30;;
19388;SDS011;9830;41.876;23.474;2023-07-29T07:19:53;1.33;;;1.23;;
19388;SDS011;9830;41.876;23.474;2023-07-29T07:22:19;1.13;;;1.10;;
19388;SDS011;9830;41.876;23.474;2023-07-29T07:24:45;1.77;;;0.65;;
19388;SDS011;9830;41.876;23.474;2023-07-29T07:27:11;3.92;;;1.17;;
19388;SDS011;9830;41.876;23.474;2023-07-29T07:29:36;4.47;;;1.13;;
19388;SDS011;9830;41.876;23.474;2023-07-29T07:32:02;0.82;;;0.82;;
19388;SDS011;9830;41.876;23.474;2023-07-29T07:34:28;0.93;;;0.93;;
19388;SDS011;9830;41.876;23.474;2023-07-29T07:36:54;0.50;;;0.50;;
19388;SDS011;9830;41.876;23.474;2023-07-29T07:39:19;0.52;;;0.52;;
19388;SDS011;9830;41.876;23.474;2023-07-29T07:41:45;0.63;;;0.63;;
19388;SDS011;9830;41.876;23.474;2023-07-29T07:44:11;0.50;;;0.50;;
19388;SDS011;9830;41.876;23.474;2023-07-29T07:46:40;0.73;;;0.73;;
19388;SDS011;9830;41.876;23.474;2023-07-29T07:49:06;1.10;;;1.00;;
19388;SDS011;9830;41.876;23.474;2023-07-29T07:51:32;0.82;;;0.82;;
19388;SDS011;9830;41.876;23.474;2023-07-29T07:53:58;1.10;;;0.85;;
19388;SDS011;9830;41.876;23.474;2023-07-29T07:56:23;0.57;;;0.55;;
19388;SDS011;9830;41.876;23.474;2023-07-29T07:58:49;1.25;;;0.75;;
19388;SDS011;9830;41.876;23.474;2023-07-29T08:01:15;1.20;;;1.05;;
19388;SDS011;9830;41.876;23.474;2023-07-29T08:03:40;1.30;;;1.20;;
19388;SDS011;9830;41.876;23.474;2023-07-29T08:06:06;0.63;;;0.63;;
19388;SDS011;9830;41.876;23.474;2023-07-29T08:08:32;0.50;;;0.50;;
19388;SDS011;9830;41.876;23.474;2023-07-29T08:10:57;0.82;;;0.82;;
19388;SDS011;9830;41.876;23.474;2023-07-29T08:13:23;1.35;;;0.65;;
19388;SDS011;9830;41.876;23.474;2023-07-29T08:15:50;2.13;;;1.27;;
19388;SDS011;9830;41.876;23.474;2023-07-29T08:18:18;0.82;;;0.82;;
19388;SDS011;9830;41.876;23.474;2023-07-29T08:20:51;0.60;;;0.60;;
19388;SDS011;9830;41.876;23.474;2023-07-29T08:23:24;1.00;;;1.00;;
19388;SDS011;9830;41.876;23.474;2023-07-29T08:25:54;1.10;;;1.10;;
19388;SDS011;9830;41.876;23.474;2023-07-29T08:28:24;1.05;;;1.05;;
19388;SDS011;9830;41.876;23.474;2023-07-29T08:30:49;0.82;;;0.82;;
19388;SDS011;9830;41.876;23.474;2023-07-29T08:33:15;0.88;;;0.88;;
19388;SDS011;9830;41.876;23.474;2023-07-29T08:35:41;0.77;;;0.77;;
19388;SDS011;9830;41.876;23.474;2023-07-29T08:38:07;1.25;;;1.17;;
19388;SDS011;9830;41.876;23.474;2023-07-29T08:40:34;2.78;;;0.95;;
19388;SDS011;9830;41.876;23.474;2023-07-29T08:43:03;0.85;;;0.85;;
19388;SDS011;9830;41.876;23.474;2023-07-29T08:45:31;0.47;;;0.47;;
19388;SDS011;9830;41.876;23.474;2023-07-29T08:48:02;0.90;;;0.90;;
19388;SDS011;9830;41.876;23.474;2023-07-29T08:50:32;0.82;;;0.82;;
19388;SDS011;9830;41.876;23.474;2023-07-29T08:52:59;1.05;;;1.05;;
19388;SDS011;9830;41.876;23.474;2023-07-29T08:55:25;0.82;;;0.82;;
19388;SDS011;9830;41.876;23.474;2023-07-29T08:57:51;0.90;;;0.85;;
19388;SDS011;9830;41.876;23.474;2023-07-29T09:00:19;0.95;;;0.95;;
19388;SDS011;9830;41.876;23.474;2023-07-29T09:02:45;1.08;;;1.08;;
19388;SDS011;9830;41.876;23.474;2023-07-29T09:05:11;0.90;;;0.90;;
19388;SDS011;9830;41.876;23.474;2023-07-29T09:07:36;0.90;;;0.90;;
19388;SDS011;9830;41.876;23.474;2023-07-29T09:10:03;0.90;;;0.90;;
19388;SDS011;9830;41.876;23.474;2023-07-29T09:12:29;0.75;;;0.75;;
19388;SDS011;9830;41.876;23.474;2023-07-29T09:14:55;0.73;;;0.73;;
19388;SDS011;9830;41.876;23.474;2023-07-29T09:17:21;1.30;;;0.95;;
19388;SDS011;9830;41.876;23.474;2023-07-29T09:19:48;1.73;;;0.80;;
19388;SDS011;9830;41.876;23.474;2023-07-29T09:22:18;0.60;;;0.60;;
19388;SDS011;9830;41.876;23.474;2023-07-29T09:24:45;0.70;;;0.70;;
19388;SDS011;9830;41.876;23.474;2023-07-29T09:27:27;1.98;;;1.25;;
19388;SDS011;9830;41.876;23.474;2023-07-29T09:29:56;0.70;;;0.70;;
19388;SDS011;9830;41.876;23.474;2023-07-29T09:32:23;0.82;;;0.82;;
19388;SDS011;9830;41.876;23.474;2023-07-29T09:34:50;0.98;;;0.98;;
19388;SDS011;9830;41.876;23.474;2023-07-29T09:37:20;0.95;;;0.95;;
19388;SDS011;9830;41.876;23.474;2023-07-29T09:39:47;0.90;;;0.90;;
19388;SDS011;9830;41.876;23.474;2023-07-29T09:42:19;1.20;;;1.20;;
19388;SDS011;9830;41.876;23.474;2023-07-29T09:44:48;0.70;;;0.70;;
19388;SDS011;9830;41.876;23.474;2023-07-29T09:47:24;0.50;;;0.50;;
19388;SDS011;9830;41.876;23.474;2023-07-29T09:49:52;1.17;;;0.70;;
19388;SDS011;9830;41.876;23.474;2023-07-29T09:52:18;0.73;;;0.73;;
19388;SDS011;9830;41.876;23.474;2023-07-29T09:54:46;1.15;;;0.68;;
19388;SDS011;9830;41.876;23.474;2023-07-29T09:57:16;0.20;;;0.20;;
19388;SDS011;9830;41.876;23.474;2023-07-29T09:59:43;1.15;;;0.90;;
19388;SDS011;9830;41.876;23.474;2023-07-29T10:02:22;0.52;;;0.52;;
19388;SDS011;9830;41.876;23.474;2023-07-29T10:04:50;0.55;;;0.55;;
19388;SDS011;9830;41.876;23.474;2023-07-29T10:07:17;0.32;;;0.32;;
19388;SDS011;9830;41.876;23.474;2023-07-29T10:09:45;0.40;;;0.40;;
19388;SDS011;9830;41.876;23.474;2023-07-29T10:12:11;0.30;;;0.30;;
19388;SDS011;9830;41.876;23.474;2023-07-29T10:14:38;0.85;;;0.73;;
19388;SDS011;9830;41.876;23.474;2023-07-29T10:17:06;0.73;;;0.73;;
19388;SDS011;9830;41.876;23.474;2023-07-29T10:19:34;0.65;;;0.65;;
19388;SDS011;9830;41.876;23.474;2023-07-29T10:22:01;1.15;;;0.90;;
19388;SDS011;9830;41.876;23.474;2023-07-29T10:24:30;6.32;;;1.05;;
19388;SDS011;9830;41.876;23.474;2023-07-29T10:26:58;0.40;;;0.40;;
19388;SDS011;9830;41.876;23.474;2023-07-29T10:29:28;0.68;;;0.65;;
19388;SDS011;9830;41.876;23.474;2023-07-29T10:32:01;0.38;;;0.30;;
19388;SDS011;9830;41.876;23.474;2023-07-29T10:34:28;0.45;;;0.45;;
19388;SDS011;9830;41.876;23.474;2023-07-29T10:36:55;0.43;;;0.43;;
19388;SDS011;9830;41.876;23.474;2023-07-29T10:39:21;0.30;;;0.30;;
19388;SDS011;9830;41.876;23.474;2023-07-29T10:47:14;0.65;;;0.65;;
19388;SDS011;9830;41.876;23.474;2023-07-29T10:49:44;1.77;;;0.70;;
19388;SDS011;9830;41.876;23.474;2023-07-29T10:52:27;1.85;;;1.02;;
19388;SDS011;9830;41.876;23.474;2023-07-29T10:55:24;1.20;;;0.90;;
19388;SDS011;9830;41.876;23.474;2023-07-29T10:58:05;0.57;;;0.40;;
19388;SDS011;9830;41.876;23.474;2023-07-29T11:00:33;0.70;;;0.70;;
19388;SDS011;9830;41.876;23.474;2023-07-29T11:03:00;0.68;;;0.68;;
19388;SDS011;9830;41.876;23.474;2023-07-29T11:05:27;0.32;;;0.32;;
19388;SDS011;9830;41.876;23.474;2023-07-29T11:08:27;0.52;;;0.52;;
19388;SDS011;9830;41.876;23.474;2023-07-29T11:13:28;0.70;;;0.70;;
19388;SDS011;9830;41.876;23.474;2023-07-29T11:15:55;0.52;;;0.52;;
19388;SDS011;9830;41.876;23.474;2023-07-29T11:18:25;0.40;;;0.40;;
19388;SDS011;9830;41.876;23.474;2023-07-29T11:20:55;0.20;;;0.20;;
19388;SDS011;9830;41.876;23.474;2023-07-29T11:23:29;0.30;;;0.30;;
19388;SDS011;9830;41.876;23.474;2023-07-29T11:25:56;0.30;;;0.30;;
19388;SDS011;9830;41.876;23.474;2023-07-29T11:28:23;1.48;;;0.55;;
19388;SDS011;9830;41.876;23.474;2023-07-29T11:30:49;9.63;;;0.77;;
19388;SDS011;9830;41.876;23.474;2023-07-29T11:33:19;0.20;;;0.20;;
19388;SDS011;9830;41.876;23.474;2023-07-29T11:35:55;0.32;;;0.32;;
19388;SDS011;9830;41.876;23.474;2023-07-29T11:38:21;0.25;;;0.25;;
19388;SDS011;9830;41.876;23.474;2023-07-29T11:40:58;0.40;;;0.40;;
19388;SDS011;9830;41.876;23.474;2023-07-29T11:43:26;0.38;;;0.38;;
19388;SDS011;9830;41.876;23.474;2023-07-29T11:45:52;1.30;;;0.43;;
19388;SDS011;9830;41.876;23.474;2023-07-29T11:48:18;0.20;;;0.20;;
19388;SDS011;9830;41.876;23.474;2023-07-29T11:50:56;0.30;;;0.30;;
19388;SDS011;9830;41.876;23.474;2023-07-29T11:53:22;0.22;;;0.22;;
19388;SDS011;9830;41.876;23.474;2023-07-29T11:55:52;0.35;;;0.35;;
19388;SDS011;9830;41.876;23.474;2023-07-29T11:58:18;0.90;;;0.73;;
19388;SDS011;9830;41.876;23.474;2023-07-29T12:00:45;0.30;;;0.30;;
19388;SDS011;9830;41.876;23.474;2023-07-29T12:03:11;0.10;;;0.10;;
19388;SDS011;9830;41.876;23.474;2023-07-29T12:05:38;0.80;;;0.40;;
19388;SDS011;9830;41.876;23.474;2023-07-29T12:08:04;0.00;;;0.00;;
19388;SDS011;9830;41.876;23.474;2023-07-29T12:10:30;0.25;;;0.25;;
19388;SDS011;9830;41.876;23.474;2023-07-29T12:12:55;0.20;;;0.20;;
19388;SDS011;9830;41.876;23.474;2023-07-29T12:15:25;0.10;;;0.10;;
19388;SDS011;9830;41.876;23.474;2023-07-29T12:17:53;0.10;;;0.10;;
19388;SDS011;9830;41.876;23.474;2023-07-29T12:20:21;2.72;;;0.25;;
19388;SDS011;9830;41.876;23.474;2023-07-29T12:22:51;1.40;;;1.30;;
19388;SDS011;9830;41.876;23.474;2023-07-29T12:25:18;1.85;;;0.75;;
19388;SDS011;9830;41.876;23.474;2023-07-29T12:27:44;0.55;;;0.55;;
19388;SDS011;9830;41.876;23.474;2023-07-29T12:30:10;2.08;;;0.57;;
19388;SDS011;9830;41.876;23.474;2023-07-29T12:32:45;0.47;;;0.20;;
19388;SDS011;9830;41.876;23.474;2023-07-29T12:35:11;0.43;;;0.35;;
19388;SDS011;9830;41.876;23.474;2023-07-29T12:37:37;0.20;;;0.20;;
19388;SDS011;9830;41.876;23.474;2023-07-29T12:40:07;0.32;;;0.32;;
19388;SDS011;9830;41.876;23.474;2023-07-29T12:42:33;0.75;;;0.40;;
19388;SDS011;9830;41.876;23.474;2023-07-29T12:44:59;0.40;;;0.40;;
19388;SDS011;9830;41.876;23.474;2023-07-29T12:47:25;0.13;;;0.13;;
19388;SDS011;9830;41.876;23.474;2023-07-29T12:49:50;0.63;;;0.63;;
19388;SDS011;9830;41.876;23.474;2023-07-29T12:52:16;0.00;;;0.00;;
19388;SDS011;9830;41.876;23.474;2023-07-29T12:54:41;0.30;;;0.28;;
19388;SDS011;9830;41.876;23.474;2023-07-29T12:57:09;0.47;;;0.47;;
19388;SDS011;9830;41.876;23.474;2023-07-29T12:59:35;0.43;;;0.32;;
19388;SDS011;9830;41.876;23.474;2023-07-29T13:02:00;0.68;;;0.68;;
19388;SDS011;9830;41.876;23.474;2023-07-29T13:04:26;0.03;;;0.03;;
19388;SDS011;9830;41.876;23.474;2023-07-29T13:06:52;0.85;;;0.40;;
19388;SDS011;9830;41.876;23.474;2023-07-29T13:09:17;0.35;;;0.35;;
19388;SDS011;9830;41.876;23.474;2023-07-29T13:11:43;0.57;;;0.43;;
19388;SDS011;9830;41.876;23.474;2023-07-29T13:14:09;0.30;;;0.30;;
19388;SDS011;9830;41.876;23.474;2023-07-29T13:16:34;0.40;;;0.40;;
19388;SDS011;9830;41.876;23.474;2023-07-29T13:19:00;0.32;;;0.32;;
19388;SDS011;9830;41.876;23.474;2023-07-29T13:21:26;0.10;;;0.10;;
19388;SDS011;9830;41.876;23.474;2023-07-29T13:23:51;1.10;;;0.40;;
19388;SDS011;9830;41.876;23.474;2023-07-29T13:26:17;0.25;;;0.25;;
19388;SDS011;9830;41.876;23.474;2023-07-29T13:28:43;0.45;;;0.45;;
19388;SDS011;9830;41.876;23.474;2023-07-29T13:31:08;0.20;;;0.20;;
19388;SDS011;9830;41.876;23.474;2023-07-29T13:33:34;0.98;;;0.47;;
19388;SDS011;9830;41.876;23.474;2023-07-29T13:36:00;0.10;;;0.10;;
19388;SDS011;9830;41.876;23.474;2023-07-29T13:38:29;3.10;;;0.95;;
19388;SDS011;9830;41.876;23.474;2023-07-29T13:40:55;0.70;;;0.70;;
19388;SDS011;9830;41.876;23.474;2023-07-29T13:43:21;0.40;;;0.40;;
19388;SDS011;9830;41.876;23.474;2023-07-29T13:45:46;0.20;;;0.20;;
19388;SDS011;9830;41.876;23.474;2023-07-29T13:48:14;0.20;;;0.20;;
19388;SDS011;9830;41.876;23.474;2023-07-29T13:50:40;0.30;;;0.30;;
19388;SDS011;9830;41.876;23.474;2023-07-29T13:53:06;1.73;;;0.47;;
19388;SDS011;9830;41.876;23.474;2023-07-29T13:55:32;0.70;;;0.70;;
19388;SDS011;9830;41.876;23.474;2023-07-29T13:57:57;0.10;;;0.10;;
19388;SDS011;9830;41.876;23.474;2023-07-29T14:00:23;1.20;;;0.35;;
19388;SDS011;9830;41.876;23.474;2023-07-29T14:02:49;0.52;;;0.52;;
19388;SDS011;9830;41.876;23.474;2023-07-29T14:05:14;0.90;;;0.52;;
19388;SDS011;9830;41.876;23.474;2023-07-29T14:07:40;0.65;;;0.65;;
19388;SDS011;9830;41.876;23.474;2023-07-29T14:10:06;0.10;;;0.10;;
19388;SDS011;9830;41.876;23.474;2023-07-29T14:12:32;2.63;;;0.63;;
19388;SDS011;9830;41.876;23.474;2023-07-29T14:14:57;0.60;;;0.60;;
19388;SDS011;9830;41.876;23.474;2023-07-29T14:17:23;0.47;;;0.47;;
19388;SDS011;9830;41.876;23.474;2023-07-29T14:19:48;0.55;;;0.55;;
19388;SDS011;9830;41.876;23.474;2023-07-29T14:22:14;0.73;;;0.63;;
19388;SDS011;9830;41.876;23.474;2023-07-29T14:24:40;0.70;;;0.38;;
19388;SDS011;9830;41.876;23.474;2023-07-29T14:27:05;0.35;;;0.35;;
19388;SDS011;9830;41.876;23.474;2023-07-29T14:29:31;0.20;;;0.20;;
19388;SDS011;9830;41.876;23.474;2023-07-29T14:31:57;0.28;;;0.28;;
19388;SDS011;9830;41.876;23.474;2023-07-29T14:34:22;0.25;;;0.25;;
19388;SDS011;9830;41.876;23.474;2023-07-29T14:36:48;0.22;;;0.22;;
19388;SDS011;9830;41.876;23.474;2023-07-29T14:39:14;0.20;;;0.20;;
19388;SDS011;9830;41.876;23.474;2023-07-29T14:41:39;0.15;;;0.15;;
19388;SDS011;9830;41.876;23.474;2023-07-29T14:44:05;0.50;;;0.50;;
19388;SDS011;9830;41.876;23.474;2023-07-29T14:46:31;0.30;;;0.30;;
19388;SDS011;9830;41.876;23.474;2023-07-29T14:48:57;1.08;;;0.60;;
19388;SDS011;9830;41.876;23.474;2023-07-29T14:51:23;0.45;;;0.45;;
19388;SDS011;9830;41.876;23.474;2023-07-29T14:53:48;0.70;;;0.65;;
19388;SDS011;9830;41.876;23.474;2023-07-29T14:56:14;0.30;;;0.30;;